YSSY/SYD METAR and TAF weather

Enter ICAO airport designator
Station Type Date Time Source
YSSY METAR 2020/12/05 05:00 UTC NOAA

YSSY 050500Z 03010KT 9999 VCSH NSC 24/18 Q1004


Station Type Date Time Source
YSSY Decoded METAR 2020/12/05 05:00 UTC NOAA

Sydney Airport, Australia (YSSY) 33-57S 151-11E 3M
Dec 05, 2020 - 12:00 AM EST / 2020.12.05 0500 UTC
Wind: from the NNE (030 degrees) at 12 MPH (10 KT):0
Visibility: greater than 7 mile(s):0
Weather: showers in the vicinity
Temperature: 75 F (24 C)
Dew Point: 64 F (18 C)
Relative Humidity: 69%
Pressure (altimeter): 29.65 in. Hg (1004 hPa)
ob: YSSY 050500Z 03010KT 9999 VCSH NSC 24/18 Q1004
cycle: 5

Station Type Date Time Source
YSSY TAF 2020/12/05 06:09 UTC NOAA

TAF TAF
AMD YSSY 050507Z 0506/0612 03014KT 9999 -SHRA SCT035 BKN100
FM051200 34008KT 9999 NSW SCT035 SCT100
FM060000 28014KT CAVOK PROB30 INTER 0506/0510 VRB25G35KT 4000 TSRA SCT010 SCT045CB

Example: see airport list